Time;durP1;ratioP1;P1;durP2;ratioP2;P2;SDS_P1;SDS_P2;PMS_P1;PMS_P2;Temp;Humidity;BMP_temperature;BMP_pressure;BME280_temperature;BME280_humidity;BME280_pressure;Samples;Min_cycle;Max_cycle;Signal;HPM_P1;HPM_P2
2023/06/16 00:02:25;;;;;;;4.72;2.45;;;18.30;80.90;;;;;;5051203;28;20025;-54
2023/06/16 00:04:52;;;;;;;4.78;2.45;;;18.30;81.50;;;;;;5051312;28;20087;-53
2023/06/16 00:07:20;;;;;;;3.50;2.03;;;18.20;81.50;;;;;;5050950;28;20033;-53
2023/06/16 00:09:47;;;;;;;4.13;2.40;;;18.20;81.30;;;;;;5051258;28;20033;-55
2023/06/16 00:12:13;;;;;;;3.67;2.28;;;18.20;81.80;;;;;;5050876;28;20068;-54
2023/06/16 00:14:39;;;;;;;5.32;2.15;;;18.20;81.40;;;;;;5051231;28;20029;-53
2023/06/16 00:17:05;;;;;;;6.93;2.42;;;18.10;81.30;;;;;;5051015;28;20036;-54
2023/06/16 00:19:32;;;;;;;3.53;2.60;;;18.10;81.30;;;;;;5051024;28;20470;-53
2023/06/16 00:22:03;;;;;;;4.55;2.08;;;18.10;83.10;;;;;;5051012;28;20037;-50
2023/06/16 00:24:29;;;;;;;4.95;2.28;;;18.00;83.00;;;;;;5051097;28;20035;-54
2023/06/16 00:26:55;;;;;;;4.85;2.42;;;18.00;83.30;;;;;;5051143;28;20050;-51
2023/06/16 00:29:21;;;;;;;4.10;2.20;;;18.00;82.70;;;;;;5049799;28;20036;-55
2023/06/16 00:31:47;;;;;;;4.53;2.40;;;17.90;82.60;;;;;;5051129;28;20489;-55
2023/06/16 00:34:12;;;;;;;6.38;2.50;;;17.80;82.50;;;;;;5051256;28;20034;-53
2023/06/16 00:36:38;;;;;;;4.38;2.22;;;17.80;83.50;;;;;;5050494;28;20123;-54
2023/06/16 00:39:04;;;;;;;4.18;2.22;;;17.70;83.40;;;;;;5051168;28;20032;-53
2023/06/16 00:41:31;;;;;;;4.72;2.50;;;17.70;84.50;;;;;;5051131;28;20040;-51
2023/06/16 00:43:56;;;;;;;4.13;2.25;;;17.70;83.60;;;;;;5051200;28;20474;-54
2023/06/16 00:46:28;;;;;;;3.28;2.10;;;17.70;84.60;;;;;;5051235;28;20037;-51
2023/06/16 00:48:55;;;;;;;4.47;2.53;;;17.60;84.30;;;;;;5052673;28;20112;-50
2023/06/16 00:51:21;;;;;;;4.97;2.53;;;17.60;85.60;;;;;;5052207;28;20032;-53
2023/06/16 00:53:47;;;;;;;4.20;2.35;;;17.60;85.10;;;;;;5053850;28;20481;-50
2023/06/16 00:56:13;;;;;;;12.20;3.50;;;17.50;85.70;;;;;;5053690;28;20036;-50
2023/06/16 00:58:39;;;;;;;4.53;2.40;;;17.50;85.20;;;;;;5053601;28;20032;-50
2023/06/16 01:01:05;;;;;;;4.38;2.38;;;17.50;85.80;;;;;;5053828;28;20479;-53
2023/06/16 01:03:32;;;;;;;5.18;2.45;;;17.50;84.70;;;;;;5052572;28;20064;-52
2023/06/16 01:06:13;;;;;;;4.32;1.90;;;17.50;84.30;;;;;;5052474;28;20063;-50
2023/06/16 01:08:46;;;;;;;5.43;2.60;;;17.50;84.50;;;;;;5053589;28;20025;-50
2023/06/16 01:11:23;;;;;;;4.65;2.13;;;17.50;85.20;;;;;;5053551;28;20068;-49
2023/06/16 01:14:01;;;;;;;4.82;2.50;;;17.50;83.70;;;;;;5053858;28;20067;-50
2023/06/16 01:16:33;;;;;;;3.53;1.85;;;17.40;83.40;;;;;;5053790;28;20124;-51
2023/06/16 01:19:08;;;;;;;3.40;1.80;;;17.40;82.90;;;;;;5053958;28;20104;-50
2023/06/16 01:22:12;;;;;;;4.35;2.60;;;17.40;83.00;;;;;;5053354;28;20601;-51
2023/06/16 01:24:42;;;;;;;3.67;2.25;;;17.50;82.40;;;;;;5053252;28;20082;-53
2023/06/16 01:27:10;;;;;;;4.10;2.42;;;17.50;82.00;;;;;;5053215;28;20056;-51
2023/06/16 01:29:37;;;;;;;5.82;2.13;;;17.50;81.90;;;;;;5053499;28;20035;-51
2023/06/16 01:32:07;;;;;;;4.38;1.90;;;17.50;82.00;;;;;;5051642;28;20040;-51
2023/06/16 01:34:35;;;;;;;3.08;1.80;;;17.50;81.60;;;;;;5053485;28;20367;-52
2023/06/16 01:37:03;;;;;;;5.43;2.25;;;17.50;81.60;;;;;;5052916;28;20482;-51
2023/06/16 01:39:30;;;;;;;3.97;1.73;;;17.50;81.50;;;;;;5053265;28;20029;-51
2023/06/16 01:41:58;;;;;;;4.75;2.13;;;17.50;81.40;;;;;;5052895;28;20105;-52
2023/06/16 01:44:26;;;;;;;4.18;2.33;;;17.50;81.60;;;;;;5051780;28;20021;-51
2023/06/16 01:46:53;;;;;;;4.35;2.15;;;17.50;82.70;;;;;;5052930;28;20025;-52
2023/06/16 01:49:19;;;;;;;4.68;2.20;;;17.50;81.70;;;;;;5053171;28;20104;-50
2023/06/16 01:51:45;;;;;;;3.58;2.00;;;17.50;83.00;;;;;;5051570;28;20136;-52
2023/06/16 01:54:11;;;;;;;4.40;1.80;;;17.40;82.60;;;;;;5051633;28;20323;-53
2023/06/16 01:56:37;;;;;;;5.35;2.33;;;17.40;84.10;;;;;;5052772;28;20536;-50
2023/06/16 01:59:03;;;;;;;4.25;2.42;;;17.30;84.30;;;;;;5052152;28;20025;-54
2023/06/16 02:01:30;;;;;;;4.05;2.10;;;17.20;83.30;;;;;;5051199;28;20060;-50
2023/06/16 02:04:08;;;;;;;3.03;1.92;;;17.20;84.70;;;;;;5052664;28;20060;-51
2023/06/16 02:07:03;;;;;;;4.97;2.10;;;17.10;84.30;;;;;;5051276;28;20037;-50
2023/06/16 02:09:32;;;;;;;3.53;1.88;;;17.10;84.20;;;;;;5051339;28;20037;-52
2023/06/16 02:11:58;;;;;;;4.32;2.42;;;17.10;84.50;;;;;;5051413;28;20044;-50
2023/06/16 02:14:27;;;;;;;4.13;2.17;;;17.00;85.00;;;;;;5052534;28;20033;-52
2023/06/16 02:16:53;;;;;;;3.83;2.45;;;17.00;84.80;;;;;;5051146;28;20025;-51
2023/06/16 02:19:19;;;;;;;3.95;2.30;;;17.00;85.80;;;;;;5051441;28;20068;-51
2023/06/16 02:21:45;;;;;;;6.47;2.47;;;16.90;84.50;;;;;;5052346;28;20056;-52
2023/06/16 02:24:11;;;;;;;3.08;1.98;;;16.90;85.80;;;;;;5052463;28;20291;-52
2023/06/16 02:26:37;;;;;;;3.35;2.10;;;16.90;85.40;;;;;;5052120;28;20405;-51
2023/06/16 02:29:03;;;;;;;4.25;2.28;;;16.80;85.30;;;;;;5052246;28;20020;-53
2023/06/16 02:31:29;;;;;;;4.15;2.20;;;16.80;86.00;;;;;;5051018;28;20029;-50
2023/06/16 02:33:56;;;;;;;3.65;2.33;;;16.80;87.30;;;;;;5051326;28;20393;-53
2023/06/16 02:36:21;;;;;;;4.57;2.63;;;16.70;87.20;;;;;;5052149;28;20032;-54
2023/06/16 02:38:47;;;;;;;3.92;2.17;;;16.70;87.30;;;;;;5052048;28;20082;-52
2023/06/16 02:41:13;;;;;;;4.55;2.20;;;16.60;87.10;;;;;;5051881;28;20029;-50
2023/06/16 02:43:39;;;;;;;4.18;2.50;;;16.60;86.70;;;;;;5050592;28;20397;-50
2023/06/16 02:46:06;;;;;;;3.45;2.20;;;16.50;87.20;;;;;;5051007;28;20107;-49
2023/06/16 02:48:32;;;;;;;3.65;2.05;;;16.40;87.30;;;;;;5051921;28;20025;-51
2023/06/16 02:50:58;;;;;;;3.33;2.05;;;16.40;87.70;;;;;;5050330;28;20021;-49
2023/06/16 02:53:25;;;;;;;4.82;2.10;;;16.30;88.00;;;;;;5051051;28;20036;-50
2023/06/16 02:55:52;;;;;;;4.60;2.47;;;16.30;88.50;;;;;;5050791;28;20033;-53
2023/06/16 02:58:19;;;;;;;3.92;2.00;;;16.20;88.60;;;;;;5050248;28;20110;-53
2023/06/16 03:00:45;;;;;;;4.32;2.40;;;16.20;88.50;;;;;;5050523;28;20029;-49
2023/06/16 03:03:16;;;;;;;4.03;2.03;;;16.10;88.60;;;;;;5050553;28;20185;-53
2023/06/16 03:05:45;;;;;;;3.22;1.98;;;16.10;88.50;;;;;;5050594;28;20052;-53
2023/06/16 03:08:11;;;;;;;6.30;2.97;;;16.10;88.80;;;;;;5050542;28;20036;-49
2023/06/16 03:10:37;;;;;;;3.97;2.63;;;16.00;89.00;;;;;;5049419;28;20116;-51
2023/06/16 03:13:07;;;;;;;5.38;2.42;;;16.00;89.00;;;;;;5050427;28;20394;-52
2023/06/16 03:15:33;;;;;;;5.65;2.45;;;16.00;89.10;;;;;;5051697;28;20029;-53
2023/06/16 03:18:01;;;;;;;4.32;2.42;;;16.00;89.30;;;;;;5049766;28;20060;-51
2023/06/16 03:20:27;;;;;;;4.93;2.20;;;15.90;89.50;;;;;;5049881;28;20052;-50
2023/06/16 03:22:58;;;;;;;5.00;2.38;;;15.90;89.80;;;;;;5050447;28;20099;-50
2023/06/16 03:25:25;;;;;;;4.45;2.30;;;15.90;90.00;;;;;;5050479;28;20059;-51
2023/06/16 03:27:51;;;;;;;3.72;2.03;;;15.90;90.10;;;;;;5051609;28;20033;-50
2023/06/16 03:30:19;;;;;;;4.78;2.25;;;15.90;90.00;;;;;;5050199;28;20235;-51
2023/06/16 03:32:55;;;;;;;5.90;2.20;;;15.90;90.30;;;;;;5049899;28;20115;-51
2023/06/16 03:35:21;;;;;;;5.75;2.45;;;15.90;90.20;;;;;;5051546;28;20397;-49
2023/06/16 03:37:48;;;;;;;5.72;2.42;;;15.90;90.30;;;;;;5050014;28;20469;-54
2023/06/16 03:40:17;;;;;;;5.35;2.47;;;16.00;90.60;;;;;;5050434;28;20029;-48
2023/06/16 03:42:43;;;;;;;5.55;2.00;;;16.00;90.50;;;;;;5050481;28;20393;-49
2023/06/16 03:45:11;;;;;;;4.28;2.22;;;16.00;90.70;;;;;;5050237;28;20025;-53
2023/06/16 03:47:36;;;;;;;5.47;2.50;;;15.90;90.60;;;;;;5050160;28;20033;-51
2023/06/16 03:50:03;;;;;;;4.82;2.15;;;15.90;90.80;;;;;;5051349;28;20029;-50
2023/06/16 03:52:30;;;;;;;4.78;2.30;;;15.90;91.00;;;;;;5049887;28;20037;-52
2023/06/16 03:54:57;;;;;;;5.13;2.33;;;15.90;91.30;;;;;;5050036;28;20033;-53
2023/06/16 03:57:22;;;;;;;5.10;2.22;;;15.90;91.40;;;;;;5051198;28;20143;-50
2023/06/16 03:59:50;;;;;;;4.40;2.05;;;15.90;91.20;;;;;;5050152;28;20554;-54
2023/06/16 04:02:16;;;;;;;4.05;2.25;;;15.90;91.30;;;;;;5050283;28;20051;-52
2023/06/16 04:04:46;;;;;;;4.47;2.10;;;16.00;91.30;;;;;;5050115;28;20029;-53
2023/06/16 04:07:13;;;;;;;5.47;2.95;;;16.00;91.30;;;;;;5049809;28;20079;-54
2023/06/16 04:09:40;;;;;;;5.05;2.72;;;16.00;91.30;;;;;;5050009;28;20120;-54
2023/06/16 04:12:06;;;;;;;3.85;2.30;;;16.00;91.30;;;;;;5051526;28;20107;-53
2023/06/16 04:14:34;;;;;;;4.68;2.30;;;16.10;91.30;;;;;;5049871;28;20036;-51
2023/06/16 04:17:00;;;;;;;4.55;2.63;;;16.10;91.70;;;;;;5049364;28;20037;-49
2023/06/16 04:19:26;;;;;;;4.70;2.45;;;16.20;91.60;;;;;;5033226;28;20212;-53
2023/06/16 04:21:52;;;;;;;3.42;2.20;;;16.20;91.50;;;;;;5051300;28;20020;-49
2023/06/16 04:24:19;;;;;;;5.10;2.50;;;16.20;92.00;;;;;;5055120;28;20029;-50
2023/06/16 04:26:48;;;;;;;4.85;3.00;;;16.20;91.70;;;;;;5053182;28;20090;-53
2023/06/16 04:29:15;;;;;;;4.70;2.30;;;16.20;91.90;;;;;;5053564;28;20082;-52
2023/06/16 04:31:43;;;;;;;5.45;2.65;;;16.30;91.90;;;;;;5053158;28;20096;-53
2023/06/16 04:34:10;;;;;;;6.40;2.97;;;16.30;91.80;;;;;;5053838;28;20037;-51
2023/06/16 04:36:44;;;;;;;4.78;2.38;;;16.30;92.10;;;;;;5053263;28;20259;-51
2023/06/16 04:39:27;;;;;;;5.47;2.90;;;16.30;91.70;;;;;;5053251;28;20119;-51
2023/06/16 04:41:53;;;;;;;4.97;2.50;;;16.30;91.70;;;;;;5053018;28;20029;-50
2023/06/16 04:44:20;;;;;;;4.68;2.80;;;16.40;91.90;;;;;;5053187;28;20028;-49
2023/06/16 04:46:46;;;;;;;5.28;2.50;;;16.40;92.10;;;;;;5053183;28;20032;-55
2023/06/16 04:49:13;;;;;;;7.07;2.70;;;16.40;91.90;;;;;;5053578;28;20036;-50
2023/06/16 04:51:39;;;;;;;4.65;2.70;;;16.50;91.90;;;;;;5053089;28;20378;-53
2023/06/16 04:54:05;;;;;;;4.72;2.40;;;16.50;91.90;;;;;;5054686;28;20060;-54
2023/06/16 04:56:32;;;;;;;7.28;2.75;;;16.60;91.90;;;;;;5052852;28;20040;-54
2023/06/16 04:58:58;;;;;;;4.65;2.47;;;16.60;91.70;;;;;;5053524;28;20632;-50
2023/06/16 05:01:26;;;;;;;5.47;2.63;;;16.70;91.70;;;;;;5054207;28;20396;-53
2023/06/16 05:03:53;;;;;;;5.47;3.33;;;16.70;91.60;;;;;;5052955;28;20029;-54
2023/06/16 05:06:18;;;;;;;10.68;3.20;;;16.80;92.00;;;;;;5053878;28;20409;-51
2023/06/16 05:08:45;;;;;;;8.07;2.88;;;16.80;91.70;;;;;;5052443;28;20033;-51
2023/06/16 05:11:10;;;;;;;7.55;3.35;;;16.90;92.10;;;;;;5052544;28;20029;-52
2023/06/16 05:13:36;;;;;;;5.05;2.83;;;17.00;91.70;;;;;;5054462;28;20021;-52
2023/06/16 05:16:02;;;;;;;6.85;3.13;;;17.00;92.60;;;;;;5053938;28;20048;-50
2023/06/16 05:18:29;;;;;;;5.72;2.80;;;17.10;92.70;;;;;;5052211;28;20481;-54
2023/06/16 05:20:56;;;;;;;5.47;2.63;;;17.20;91.40;;;;;;5052157;28;20029;-53
2023/06/16 05:23:21;;;;;;;5.10;3.10;;;17.20;91.80;;;;;;5052450;28;20496;-52
2023/06/16 05:25:47;;;;;;;6.32;3.20;;;17.20;91.30;;;;;;5052635;28;20025;-54
2023/06/16 05:28:13;;;;;;;4.90;2.63;;;17.30;91.40;;;;;;5052535;28;20041;-51
2023/06/16 05:30:39;;;;;;;6.88;3.03;;;17.40;91.20;;;;;;5052449;28;20083;-53
2023/06/16 05:33:05;;;;;;;6.05;3.20;;;17.40;91.10;;;;;;5051138;28;20060;-54
2023/06/16 05:35:32;;;;;;;7.50;2.80;;;17.50;90.80;;;;;;5052349;28;20370;-50
2023/06/16 05:37:58;;;;;;;6.85;3.10;;;17.60;90.50;;;;;;5052364;28;20082;-54
2023/06/16 05:40:23;;;;;;;6.05;2.83;;;17.70;90.70;;;;;;5051974;28;20032;-52
2023/06/16 05:42:50;;;;;;;7.22;2.80;;;17.70;90.60;;;;;;5052236;28;20409;-50
2023/06/16 05:45:17;;;;;;;6.75;3.22;;;17.80;90.00;;;;;;5052165;28;20047;-53
2023/06/16 05:47:44;;;;;;;8.13;3.28;;;17.90;90.50;;;;;;5052116;28;20245;-54
2023/06/16 05:50:10;;;;;;;6.22;2.97;;;18.00;90.80;;;;;;5051840;28;20083;-54
2023/06/16 05:52:36;;;;;;;6.15;3.10;;;18.20;90.60;;;;;;5051717;28;20497;-53
2023/06/16 05:55:03;;;;;;;5.50;2.63;;;18.30;90.60;;;;;;5052022;28;20064;-55
2023/06/16 05:57:45;;;;;;;7.97;3.40;;;18.40;89.40;;;;;;5051924;28;20219;-47
2023/06/16 06:00:11;;;;;;;6.43;2.63;;;18.50;90.00;;;;;;5052042;28;20033;-49
2023/06/16 06:02:40;;;;;;;7.85;2.90;;;18.60;88.90;;;;;;5053213;28;20068;-52
2023/06/16 06:05:13;;;;;;;4.47;2.63;;;18.70;87.10;;;;;;5051784;28;20048;-51
2023/06/16 06:07:39;;;;;;;5.72;2.85;;;18.90;86.40;;;;;;5051520;28;20114;-50
2023/06/16 06:10:06;;;;;;;6.05;3.28;;;19.00;86.90;;;;;;5051516;28;20116;-53
2023/06/16 06:12:33;;;;;;;6.32;2.97;;;19.10;86.80;;;;;;5051814;28;20122;-54
2023/06/16 06:14:59;;;;;;;8.10;2.75;;;19.20;85.60;;;;;;5051991;28;20247;-49
2023/06/16 06:17:25;;;;;;;5.40;2.70;;;19.30;83.20;;;;;;5052572;28;20489;-52
2023/06/16 06:19:50;;;;;;;6.97;2.50;;;19.40;83.80;;;;;;5051818;28;20021;-50
2023/06/16 06:22:16;;;;;;;5.85;3.45;;;19.40;84.10;;;;;;5052557;28;20075;-54
2023/06/16 06:24:42;;;;;;;6.82;2.97;;;19.40;84.20;;;;;;5051468;28;20483;-50
2023/06/16 06:27:10;;;;;;;7.53;3.50;;;19.40;84.90;;;;;;5051145;28;20043;-53
2023/06/16 06:29:36;;;;;;;5.85;2.88;;;19.50;82.60;;;;;;5051397;28;20025;-51
2023/06/16 06:32:07;;;;;;;4.97;2.60;;;19.70;81.60;;;;;;5051076;28;20032;-52
2023/06/16 06:34:35;;;;;;;5.72;2.80;;;19.80;81.90;;;;;;5051348;28;20108;-51
2023/06/16 06:37:01;;;;;;;7.30;2.78;;;19.90;81.60;;;;;;5051166;28;20400;-51
2023/06/16 06:39:27;;;;;;;6.72;2.53;;;20.00;80.70;;;;;;5051077;28;20116;-53
2023/06/16 06:41:55;;;;;;;5.90;2.40;;;20.20;78.90;;;;;;5050737;28;20082;-52
2023/06/16 06:44:23;;;;;;;5.38;2.35;;;20.40;80.30;;;;;;5050585;28;20485;-53
2023/06/16 06:46:50;;;;;;;4.82;2.42;;;20.50;77.20;;;;;;5050878;28;20025;-49
2023/06/16 06:49:17;;;;;;;8.45;2.50;;;20.70;76.20;;;;;;5050896;28;20481;-51
2023/06/16 06:51:43;;;;;;;7.28;2.80;;;20.80;78.00;;;;;;5050590;28;20032;-52
2023/06/16 06:54:08;;;;;;;4.93;2.60;;;20.90;75.50;;;;;;5052410;28;20032;-49
2023/06/16 06:56:34;;;;;;;6.45;2.30;;;21.10;73.70;;;;;;5051825;28;20025;-51
2023/06/16 06:59:00;;;;;;;5.65;2.70;;;21.30;72.80;;;;;;5052164;28;20032;-52
2023/06/16 07:01:26;;;;;;;7.88;2.25;;;21.50;70.80;;;;;;5051936;28;20474;-49
2023/06/16 07:03:51;;;;;;;4.50;2.40;;;21.50;71.50;;;;;;5052043;28;20032;-51
2023/06/16 07:06:17;;;;;;;4.28;2.50;;;21.60;73.40;;;;;;5052108;28;20548;-55
2023/06/16 07:08:43;;;;;;;6.68;2.35;;;21.70;71.00;;;;;;5051524;28;20028;-50
2023/06/16 07:11:09;;;;;;;7.88;2.53;;;21.90;69.50;;;;;;5051454;28;20041;-53
2023/06/16 07:13:35;;;;;;;4.45;2.20;;;21.90;68.40;;;;;;5052031;28;20033;-55
2023/06/16 07:16:00;;;;;;;3.40;1.92;;;22.00;65.60;;;;;;5051560;28;20100;-50
2023/06/16 07:18:26;;;;;;;4.68;1.80;;;22.10;69.10;;;;;;5051304;28;20481;-50
2023/06/16 07:20:52;;;;;;;5.05;2.38;;;22.00;68.60;;;;;;5051261;28;20504;-52
2023/06/16 07:23:17;;;;;;;7.65;2.40;;;22.00;67.90;;;;;;5051664;28;20071;-54
2023/06/16 07:25:43;;;;;;;4.57;2.38;;;21.80;66.90;;;;;;5050836;28;20124;-54
2023/06/16 07:28:09;;;;;;;4.10;2.22;;;21.70;68.80;;;;;;5051298;28;20037;-53
2023/06/16 07:30:35;;;;;;;4.90;2.40;;;21.70;65.70;;;;;;5051663;28;20025;-55
2023/06/16 07:33:01;;;;;;;5.00;2.33;;;21.70;66.80;;;;;;5051526;28;20032;-55
2023/06/16 07:35:27;;;;;;;3.13;2.08;;;21.80;65.60;;;;;;5051706;28;20499;-54
2023/06/16 07:37:52;;;;;;;4.03;1.90;;;21.90;67.70;;;;;;5051608;28;20029;-51
2023/06/16 07:40:18;;;;;;;3.92;2.13;;;22.00;66.90;;;;;;5051544;28;20029;-54
2023/06/16 07:42:45;;;;;;;4.53;2.08;;;22.10;64.30;;;;;;5051239;28;20032;-54
2023/06/16 07:45:12;;;;;;;3.97;2.05;;;22.20;64.80;;;;;;5051829;28;20099;-55
2023/06/16 07:47:41;;;;;;;4.15;2.30;;;22.30;65.40;;;;;;5051150;28;20032;-53
2023/06/16 07:50:10;;;;;;;3.22;2.10;;;22.50;65.40;;;;;;5051163;28;20116;-54
2023/06/16 07:52:36;;;;;;;5.53;2.58;;;22.70;64.40;;;;;;5051239;28;20116;-54
2023/06/16 07:55:02;;;;;;;4.40;2.28;;;22.80;64.00;;;;;;5051296;28;20111;-53
2023/06/16 07:57:28;;;;;;;4.07;2.33;;;22.90;64.80;;;;;;5053916;28;20094;-53
2023/06/16 07:59:53;;;;;;;5.32;2.80;;;22.90;63.30;;;;;;5055562;28;20025;-54
2023/06/16 08:02:19;;;;;;;8.88;4.10;;;23.10;62.70;;;;;;5054973;28;20417;-53
2023/06/16 08:04:45;;;;;;;4.68;2.42;;;23.20;62.40;;;;;;5055989;28;20119;-53
2023/06/16 08:07:11;;;;;;;5.00;2.33;;;23.20;63.10;;;;;;5055032;28;20076;-53
2023/06/16 08:09:37;;;;;;;3.47;2.08;;;23.20;60.10;;;;;;5055291;28;20079;-54
2023/06/16 08:12:04;;;;;;;4.15;2.17;;;23.30;62.10;;;;;;5053648;28;20033;-54
2023/06/16 08:14:30;;;;;;;4.40;2.30;;;23.30;60.70;;;;;;5055430;28;20112;-54
2023/06/16 08:16:56;;;;;;;4.47;2.33;;;23.30;61.10;;;;;;5055143;28;20028;-53
2023/06/16 08:19:22;;;;;;;3.47;2.28;;;23.40;61.00;;;;;;5055717;28;20036;-52
2023/06/16 08:21:47;;;;;;;4.80;2.30;;;23.50;59.40;;;;;;5055108;28;20066;-54
2023/06/16 08:24:13;;;;;;;4.53;2.28;;;23.60;60.40;;;;;;5055475;28;20078;-49
2023/06/16 08:26:39;;;;;;;4.40;2.60;;;23.50;60.80;;;;;;5054992;28;20041;-53
2023/06/16 08:29:05;;;;;;;5.13;2.28;;;23.50;60.10;;;;;;5055830;28;20082;-54
2023/06/16 08:31:30;;;;;;;5.10;2.40;;;23.50;62.10;;;;;;5054685;28;20029;-55
2023/06/16 08:33:56;;;;;;;4.85;2.25;;;23.50;61.60;;;;;;5055022;28;20036;-51
2023/06/16 08:36:24;;;;;;;5.90;2.60;;;23.50;61.80;;;;;;5054929;28;20374;-53
2023/06/16 08:38:52;;;;;;;2.72;1.80;;;23.50;61.30;;;;;;5054546;28;20035;-53
2023/06/16 08:41:19;;;;;;;4.05;2.00;;;23.60;61.40;;;;;;5054435;28;20460;-54
2023/06/16 08:43:50;;;;;;;4.30;2.42;;;23.60;61.80;;;;;;5054601;28;20029;-51
2023/06/16 08:46:16;;;;;;;4.88;2.22;;;23.70;61.10;;;;;;5054806;28;20025;-54
2023/06/16 08:48:42;;;;;;;4.35;2.20;;;23.80;62.30;;;;;;5054733;28;20090;-49
2023/06/16 08:51:13;;;;;;;3.90;2.10;;;23.90;60.30;;;;;;5054343;28;20075;-54
2023/06/16 08:53:41;;;;;;;3.95;2.40;;;23.90;61.20;;;;;;5052758;28;20437;-52
2023/06/16 08:56:09;;;;;;;3.75;2.28;;;24.00;62.70;;;;;;5054580;28;20029;-52
2023/06/16 08:58:35;;;;;;;5.10;2.50;;;24.00;61.10;;;;;;5054196;28;20469;-54
2023/06/16 09:01:02;;;;;;;3.95;1.98;;;24.10;60.30;;;;;;5054387;28;20020;-54
2023/06/16 09:03:32;;;;;;;3.97;2.38;;;24.20;60.00;;;;;;5054195;28;20056;-53
2023/06/16 09:06:00;;;;;;;3.72;2.05;;;24.20;60.70;;;;;;5054305;28;20405;-54
2023/06/16 09:08:27;;;;;;;3.70;2.03;;;24.30;60.30;;;;;;5054143;28;20033;-54
2023/06/16 09:10:55;;;;;;;5.13;2.33;;;24.40;60.30;;;;;;5053541;28;20405;-55
2023/06/16 09:13:22;;;;;;;;;;;24.60;59.40;;;;;;5054557;28;20179;-55
2023/06/16 09:15:49;;;;;;;4.15;2.17;;;24.60;58.20;;;;;;5054084;28;19931;-53
2023/06/16 09:18:15;;;;;;;3.03;2.03;;;24.50;57.90;;;;;;5053630;28;20490;-55
2023/06/16 09:20:50;;;;;;;3.28;2.10;;;24.60;58.60;;;;;;5053812;28;20374;-54
2023/06/16 09:23:26;;;;;;;3.97;2.30;;;24.60;57.00;;;;;;5053917;28;20040;-53
2023/06/16 09:25:52;;;;;;;2.45;1.70;;;24.70;57.60;;;;;;5053825;28;20107;-53
2023/06/16 09:28:18;;;;;;;3.28;2.00;;;24.70;58.50;;;;;;5053655;28;20187;-54
2023/06/16 09:30:44;;;;;;;4.32;1.95;;;24.80;58.20;;;;;;5053859;28;20560;-54
2023/06/16 09:33:11;;;;;;;4.80;2.20;;;24.90;58.00;;;;;;5053543;28;20120;-55
2023/06/16 09:35:40;;;;;;;3.30;1.80;;;25.00;58.20;;;;;;5053668;28;20033;-54
2023/06/16 09:38:06;;;;;;;4.45;2.20;;;25.10;57.10;;;;;;5053453;28;20482;-55
2023/06/16 09:40:33;;;;;;;3.53;2.03;;;25.00;55.20;;;;;;5053321;28;20029;-53
2023/06/16 09:43:01;;;;;;;3.92;1.90;;;25.10;57.00;;;;;;5053265;28;20392;-52
2023/06/16 09:45:31;;;;;;;5.20;2.47;;;25.10;55.00;;;;;;5053396;28;20035;-54
2023/06/16 09:48:01;;;;;;;3.92;2.00;;;25.20;56.70;;;;;;5053422;28;20076;-54
2023/06/16 09:50:27;;;;;;;3.42;2.13;;;25.30;57.50;;;;;;5053075;28;20036;-55
2023/06/16 09:52:54;;;;;;;3.65;2.17;;;25.30;56.90;;;;;;5052970;28;20033;-55
2023/06/16 09:55:20;;;;;;;5.23;2.93;;;25.40;57.40;;;;;;5053315;28;20037;-53
2023/06/16 09:57:47;;;;;;;4.10;2.40;;;25.60;56.90;;;;;;5053348;28;20029;-54
2023/06/16 10:00:16;;;;;;;3.30;2.10;;;25.70;56.30;;;;;;5052836;28;20492;-55
2023/06/16 10:02:48;;;;;;;4.05;2.35;;;25.70;54.90;;;;;;5053070;28;20064;-54
2023/06/16 10:05:18;;;;;;;3.65;2.53;;;25.80;54.90;;;;;;5053025;28;20021;-55
2023/06/16 10:07:56;;;;;;;3.80;2.40;;;25.70;55.80;;;;;;5052945;28;20397;-54
2023/06/16 10:10:28;;;;;;;4.90;2.20;;;25.70;56.60;;;;;;5052884;28;20074;-54
2023/06/16 10:12:55;;;;;;;3.08;2.20;;;25.60;55.60;;;;;;5051619;28;20033;-53
2023/06/16 10:15:23;;;;;;;2.72;1.77;;;25.60;55.70;;;;;;5053096;28;20504;-54
2023/06/16 10:17:55;;;;;;;4.40;2.50;;;25.60;55.70;;;;;;5052616;28;20037;-51
2023/06/16 10:20:27;;;;;;;3.53;2.15;;;25.70;56.10;;;;;;5051983;28;20048;-53
2023/06/16 10:22:56;;;;;;;4.90;2.30;;;25.80;56.50;;;;;;5052559;28;20040;-54
2023/06/16 10:25:21;;;;;;;4.70;2.33;;;25.90;54.70;;;;;;5051410;28;20029;-53
2023/06/16 10:27:50;;;;;;;5.63;2.55;;;26.00;56.10;;;;;;5052425;28;20515;-54
2023/06/16 10:30:19;;;;;;;5.38;2.47;;;26.00;56.20;;;;;;5052659;28;20041;-52
2023/06/16 10:32:52;;;;;;;8.35;3.03;;;26.00;56.40;;;;;;5052388;28;20029;-52
2023/06/16 10:35:20;;;;;;;4.95;2.78;;;26.00;56.20;;;;;;5052678;28;20420;-54
2023/06/16 10:37:52;;;;;;;4.40;2.63;;;25.90;56.40;;;;;;5051951;28;20116;-53
2023/06/16 10:40:20;;;;;;;6.05;2.50;;;25.90;56.60;;;;;;5052364;28;20017;-51
2023/06/16 10:42:46;;;;;;;5.00;2.50;;;25.80;56.40;;;;;;5052369;28;20025;-53
2023/06/16 10:45:26;;;;;;;4.80;2.72;;;25.70;57.00;;;;;;5052622;28;20115;-49
2023/06/16 10:47:58;;;;;;;4.45;2.42;;;25.70;56.30;;;;;;5052690;28;20087;-52
2023/06/16 10:50:41;;;;;;;5.05;2.45;;;25.70;55.70;;;;;;5052275;28;20083;-53
2023/06/16 10:53:14;;;;;;;5.78;2.92;;;25.60;56.00;;;;;;5052150;28;20548;-55
2023/06/16 10:55:43;;;;;;;4.95;2.63;;;25.60;55.80;;;;;;5052123;28;20207;-54
2023/06/16 10:58:19;;;;;;;5.93;3.20;;;25.70;57.00;;;;;;5052043;28;20048;-53
2023/06/16 11:00:44;;;;;;;4.13;2.50;;;25.80;56.60;;;;;;5052343;28;20029;-49
2023/06/16 11:03:10;;;;;;;4.13;2.40;;;25.90;55.20;;;;;;5052184;28;20485;-51
2023/06/16 11:05:40;;;;;;;4.95;2.70;;;25.90;55.90;;;;;;5052454;28;20053;-54
2023/06/16 11:08:09;;;;;;;6.82;3.17;;;26.00;56.40;;;;;;5051716;28;20031;-51
2023/06/16 11:10:49;;;;;;;4.90;2.90;;;26.10;56.70;;;;;;5052074;28;20040;-55
2023/06/16 11:13:21;;;;;;;7.28;2.80;;;26.10;57.00;;;;;;5051861;28;20087;-51
2023/06/16 11:15:47;;;;;;;5.57;2.78;;;26.00;56.60;;;;;;5052021;28;20304;-55
2023/06/16 11:18:13;;;;;;;4.10;2.35;;;25.90;56.50;;;;;;5051738;28;20109;-55
2023/06/16 11:20:40;;;;;;;6.25;2.80;;;26.00;56.00;;;;;;5051771;28;20040;-51
2023/06/16 11:23:07;;;;;;;4.72;2.22;;;26.00;56.90;;;;;;5051929;28;20060;-55
2023/06/16 11:25:33;;;;;;;4.25;2.70;;;26.00;57.00;;;;;;5051551;28;20044;-55
2023/06/16 11:27:59;;;;;;;4.03;2.75;;;26.10;57.10;;;;;;5051184;28;20033;-51
2023/06/16 11:30:26;;;;;;;4.18;2.70;;;26.20;56.60;;;;;;5050887;28;20041;-52
2023/06/16 11:32:52;;;;;;;3.53;2.28;;;26.30;57.10;;;;;;5050923;28;20029;-55
2023/06/16 11:35:18;;;;;;;4.10;2.58;;;26.40;56.70;;;;;;5051546;28;20489;-53
2023/06/16 11:37:50;;;;;;;4.20;2.65;;;26.50;56.10;;;;;;5049661;28;20033;-55
2023/06/16 11:40:22;;;;;;;7.93;2.78;;;26.60;56.90;;;;;;5051280;28;20057;-54
2023/06/16 11:42:57;;;;;;;4.55;3.15;;;26.50;55.70;;;;;;5051389;28;20029;-54
2023/06/16 11:45:26;;;;;;;5.07;2.80;;;26.60;55.70;;;;;;5051321;28;20107;-55
2023/06/16 11:47:58;;;;;;;4.25;2.60;;;26.60;55.50;;;;;;5051145;28;20052;-54
2023/06/16 11:50:24;;;;;;;5.30;3.13;;;26.50;55.80;;;;;;5051188;28;20464;-50
2023/06/16 11:52:51;;;;;;;5.32;2.58;;;26.50;56.20;;;;;;5051101;28;20033;-52
2023/06/16 11:55:18;;;;;;;22.58;15.25;;;26.40;56.10;;;;;;5051185;28;20037;-52
2023/06/16 11:57:44;;;;;;;4.65;2.97;;;26.30;56.90;;;;;;5050955;28;20052;-53
2023/06/16 12:00:12;;;;;;;4.72;2.78;;;26.20;55.90;;;;;;5050760;28;20029;-53
2023/06/16 12:02:38;;;;;;;5.45;2.63;;;26.10;56.00;;;;;;5051195;28;20354;-53
2023/06/16 12:05:28;;;;;;;5.20;2.85;;;26.10;57.00;;;;;;5051039;28;20421;-54
2023/06/16 12:07:54;;;;;;;10.32;5.45;;;26.40;56.40;;;;;;5051161;28;20159;-55
2023/06/16 12:10:22;;;;;;;5.63;2.75;;;26.70;55.70;;;;;;5051002;28;20108;-52
2023/06/16 12:12:48;;;;;;;5.70;2.72;;;26.70;56.00;;;;;;5050509;28;20041;-54
2023/06/16 12:15:17;;;;;;;5.00;2.75;;;26.70;55.70;;;;;;5051006;28;20044;-52
2023/06/16 12:17:43;;;;;;;6.13;3.53;;;26.70;56.00;;;;;;5050494;28;20082;-54
2023/06/16 12:20:12;;;;;;;4.97;3.22;;;26.70;56.20;;;;;;5050484;28;20492;-54
2023/06/16 12:22:38;;;;;;;6.72;3.10;;;26.80;55.00;;;;;;5051041;28;20091;-53
2023/06/16 12:25:14;;;;;;;4.80;3.22;;;26.70;54.60;;;;;;5050743;28;20509;-55
2023/06/16 12:27:49;;;;;;;5.55;2.80;;;26.70;54.90;;;;;;5050725;28;20106;-54
2023/06/16 12:30:15;;;;;;;4.25;2.60;;;26.70;54.60;;;;;;5050700;28;20029;-52
2023/06/16 12:32:42;;;;;;;5.95;4.00;;;26.60;54.80;;;;;;5050537;28;20063;-53
2023/06/16 12:35:09;;;;;;;6.18;2.92;;;26.70;55.00;;;;;;5050570;28;20496;-52
2023/06/16 12:37:35;;;;;;;5.45;3.28;;;26.80;55.00;;;;;;5050397;28;20103;-53
2023/06/16 12:40:06;;;;;;;6.50;2.78;;;26.90;54.80;;;;;;5050853;28;20040;-53
2023/06/16 12:42:33;;;;;;;16.23;9.40;;;27.10;53.30;;;;;;5051889;28;20021;-51
2023/06/16 12:45:02;;;;;;;8.18;4.72;;;27.20;54.20;;;;;;5054258;28;20025;-53
2023/06/16 12:47:29;;;;;;;4.60;2.70;;;27.30;53.70;;;;;;5054368;28;20385;-53
2023/06/16 12:49:57;;;;;;;5.38;3.00;;;27.30;53.50;;;;;;5054238;28;20064;-52
2023/06/16 12:52:25;;;;;;;5.20;2.58;;;27.10;54.00;;;;;;5054032;28;20087;-54